Nearby METAR Reports

 

KSJC - San Jose, California, USA
Distance from station: NE 14km
Actualización: 22/06/2024 16:53
Few Clouds
Few Clouds
 Viento del calm
Viento: Calma
Temperatura: 17°C
Rocío: 12°C
Humedad: 73%
Barómetro: 1009.5 hPa
Clouds: Few Clouds
Visibilidad: 13 km
Cloud details: Few Clouds 305 m
2024/06/22 14:53 KSJC 221453Z 00000KT 8SM FEW010 17/12 A2981 RMK AO2 SLP093 T01670122 53004
KNUQ - Moffett Nas/Mtn, California, USA
Distance from station: N 14km
Actualización: 22/06/2024 16:55
Parcialmente nuboso
Parcialmente nuboso
 Viento del calm
Viento: Calma
Temperatura: 15°C
Rocío: 13°C
Humedad: 88%
Barómetro: 1009.5 hPa
Clouds: Parcialmente nuboso
Visibilidad: 11 km
Cloud details: Parcialmente nuboso 274 m
2024/06/22 14:55 KNUQ 221455Z AUTO 00000KT 7SM SCT009 15/13 A2981 RMK AO2
 
KPAO - Palo Alto, California, USA
Distance from station: NNO 23km
Actualización: 22/06/2024 16:47
Muy nuboso
Muy nuboso
 Viento del calm
Viento: Calma
Temperatura: 14°C
Rocío: 12°C
Humedad: 88%
Barómetro: 1009.8 hPa
Clouds: Muy nuboso
Visibilidad: 13 km
Cloud details: Muy nuboso 244 m
2024/06/22 14:47 KPAO 221447Z 00000KT 8SM BKN008 14/12 A2982
KRHV - San Jose/Reid, California, USA
Distance from station: ENE 19km
Actualización: 22/06/2024 16:47
Despejado
Despejado
 Viento del calm
Viento: Calma
Temperatura: 16°C
Rocío: 11°C
Humedad: 72%
Barómetro: 1009.8 hPa
Clouds: Despejado
Visibilidad: 16 km
2024/06/22 14:47 KRHV 221447Z 00000KT 10SM SKC 16/11 A2982
 
KOAK - Oakland, California, USA
Distance from station: NNO 50km
Actualización: 22/06/2024 16:53
Muy nuboso
Muy nuboso
 Viento del calm
Viento: Calma
Temperatura: 14°C
Rocío: 13°C
Humedad: 94%
Barómetro: 1009.8 hPa
Clouds: Muy nuboso
Visibilidad: 13 km
Cloud details: Parcialmente nuboso 152 m
Muy nuboso 396 m
2024/06/22 14:53 KOAK 221453Z 00000KT 8SM SCT005 BKN013 14/13 A2982 RMK AO2 SLP096 T01440128 53002
KSQL - San Carlos Airpo, California, USA
Distance from station: NO 34km
Actualización: 22/06/2024 16:47
Mist, Cubierto
Mist, Cubierto
 Viento del calm
Viento: Calma
Temperatura: 14°C
Rocío: 13°C
Humedad: 94%
Barómetro: 1009.8 hPa
Resumen: Mist
Clouds: Cubierto
Visibilidad: 10 km
Cloud details: Cubierto 244 m
2024/06/22 14:47 KSQL 221447Z 00000KT 6SM BR OVC008 14/13 A2982
 
KSFO - San Francisco, California, USA
Distance from station: NO 49km
Actualización: 22/06/2024 16:56
Muy nuboso
Muy nuboso
 Viento del calm
Viento: Calma
Temperatura: 13°C
Rocío: 11°C
Humedad: 88%
Barómetro: 1009.5 hPa
Clouds: Muy nuboso
Visibilidad: 16 km
Cloud details: Few Clouds 122 m
Muy nuboso 244 m
2024/06/22 14:56 KSFO 221456Z 00000KT 10SM FEW004 BKN008 13/11 A2981 RMK AO2 SLP094 T01280111 53002
KE16 - San Martin, California, USA
Distance from station: ESE 43km
Actualización: 22/06/2024 16:55
Despejado
Despejado
 Viento del calm
Viento: Calma
Temperatura: 14°C
Rocío: 10°C
Humedad: 77%
Barómetro: 1010.5 hPa
Clouds: Despejado
Visibilidad: 16 km
2024/06/22 14:55 KE16 221455Z AUTO 00000KT 10SM CLR 14/10 A2984 RMK AO2
 
KWVI - Watsonville, California, USA
Distance from station: SSE 44km
Actualización: 22/06/2024 16:58
Mist, Cubierto
Mist, Cubierto
 Viento del calm
Viento: Calma
Temperatura: 12°C
Rocío: 11°C
Humedad: 94%
Barómetro: 1010.2 hPa
Resumen: Mist
Clouds: Cubierto
Visibilidad: 5 km
Cloud details: Cubierto 61 m
2024/06/22 14:58 KWVI 221458Z AUTO 00000KT 3SM BR OVC002 12/11 A2983 RMK AO2 T01170111
KHAF - Half Moon Bay, California, USA
Distance from station: ONO 50km
Actualización: 22/06/2024 00:15
NOT Current
Parcialmente nuboso
Parcialmente nuboso
 Viento del O
Viento: O 11 km/h
Temperatura: 13°C
Rocío: 12°C
Humedad: 94%
Barómetro: 1011.5 hPa
Clouds: Parcialmente nuboso
Visibilidad: 13 km
Cloud details: Parcialmente nuboso 244 m
2024/06/21 22:15 KHAF 212215Z AUTO 28006KT 8SM SCT008 13/12 A2987 RMK AO2
 
KHWD - Hayward, California, USA
Distance from station: N 44km
Actualización: 22/06/2024 16:54
Despejado
Despejado
 Viento del calm
Viento: Calma
Temperatura: 16°C
Rocío: 12°C
Humedad: 77%
Barómetro: 1009.1 hPa
Clouds: Despejado
Visibilidad: 16 km
2024/06/22 14:54 KHWD 221454Z 00000KT 10SM CLR 16/12 A2980 RMK AO2 SLP102 T01560117 53002
KLVK - Livermore, California, USA
Distance from station: NNE 51km
Actualización: 22/06/2024 16:53
Despejado
Despejado
 Viento del calm
Viento: Calma
Temperatura: 17°C
Rocío: 12°C
Humedad: 73%
Barómetro: 1009.1 hPa
Clouds: Despejado
Visibilidad: 11 km
2024/06/22 14:53 KLVK 221453Z 00000KT 7SM CLR 17/12 A2980 RMK AO2 SLP087 T01670117 53004